sensor_id;sensor_type;location;lat;lon;timestamp;P1;durP1;ratioP1;P2;durP2;ratioP2
1446;SDS011;717;51.522;7.266;2023-02-25T00:01:44;10.23;;;1.33;;
1446;SDS011;717;51.522;7.266;2023-02-25T00:04:14;10.10;;;1.17;;
1446;SDS011;717;51.522;7.266;2023-02-25T00:06:43;12.63;;;1.53;;
1446;SDS011;717;51.522;7.266;2023-02-25T00:09:12;4.47;;;1.27;;
1446;SDS011;717;51.522;7.266;2023-02-25T00:11:43;6.90;;;1.30;;
1446;SDS011;717;51.522;7.266;2023-02-25T00:14:11;6.87;;;1.33;;
1446;SDS011;717;51.522;7.266;2023-02-25T00:16:40;5.37;;;1.10;;
1446;SDS011;717;51.522;7.266;2023-02-25T00:19:09;9.63;;;1.37;;
1446;SDS011;717;51.522;7.266;2023-02-25T00:21:37;6.17;;;1.17;;
1446;SDS011;717;51.522;7.266;2023-02-25T00:24:06;9.20;;;1.43;;
1446;SDS011;717;51.522;7.266;2023-02-25T00:26:35;4.73;;;1.17;;
1446;SDS011;717;51.522;7.266;2023-02-25T00:29:06;5.93;;;1.87;;
1446;SDS011;717;51.522;7.266;2023-02-25T00:31:35;10.33;;;1.30;;
1446;SDS011;717;51.522;7.266;2023-02-25T00:34:03;6.53;;;1.30;;
1446;SDS011;717;51.522;7.266;2023-02-25T00:36:32;9.10;;;2.07;;
1446;SDS011;717;51.522;7.266;2023-02-25T00:39:00;6.00;;;1.20;;
1446;SDS011;717;51.522;7.266;2023-02-25T00:41:29;8.57;;;1.40;;
1446;SDS011;717;51.522;7.266;2023-02-25T00:43:58;3.83;;;1.27;;
1446;SDS011;717;51.522;7.266;2023-02-25T00:46:31;4.97;;;1.30;;
1446;SDS011;717;51.522;7.266;2023-02-25T00:49:00;9.07;;;1.63;;
1446;SDS011;717;51.522;7.266;2023-02-25T00:51:30;5.63;;;1.13;;
1446;SDS011;717;51.522;7.266;2023-02-25T00:54:00;7.40;;;1.40;;
1446;SDS011;717;51.522;7.266;2023-02-25T00:56:28;8.30;;;1.87;;
1446;SDS011;717;51.522;7.266;2023-02-25T00:58:58;5.77;;;1.00;;
1446;SDS011;717;51.522;7.266;2023-02-25T01:01:27;5.30;;;1.23;;
1446;SDS011;717;51.522;7.266;2023-02-25T01:04:02;7.43;;;1.47;;
1446;SDS011;717;51.522;7.266;2023-02-25T01:06:31;6.93;;;1.70;;
1446;SDS011;717;51.522;7.266;2023-02-25T01:09:02;9.17;;;1.53;;
1446;SDS011;717;51.522;7.266;2023-02-25T01:11:32;7.67;;;1.50;;
1446;SDS011;717;51.522;7.266;2023-02-25T01:14:03;8.23;;;1.23;;
1446;SDS011;717;51.522;7.266;2023-02-25T01:16:36;4.07;;;1.00;;
1446;SDS011;717;51.522;7.266;2023-02-25T01:19:06;8.73;;;1.07;;
1446;SDS011;717;51.522;7.266;2023-02-25T01:21:36;5.33;;;1.10;;
1446;SDS011;717;51.522;7.266;2023-02-25T01:24:07;8.60;;;1.43;;
1446;SDS011;717;51.522;7.266;2023-02-25T01:26:39;7.03;;;1.53;;
1446;SDS011;717;51.522;7.266;2023-02-25T01:29:10;6.80;;;1.20;;
1446;SDS011;717;51.522;7.266;2023-02-25T01:31:43;12.43;;;1.57;;
1446;SDS011;717;51.522;7.266;2023-02-25T01:34:13;8.43;;;1.40;;
1446;SDS011;717;51.522;7.266;2023-02-25T01:36:43;6.73;;;1.37;;
1446;SDS011;717;51.522;7.266;2023-02-25T01:39:13;9.50;;;1.63;;
1446;SDS011;717;51.522;7.266;2023-02-25T01:41:43;8.83;;;1.43;;
1446;SDS011;717;51.522;7.266;2023-02-25T01:44:14;5.33;;;1.40;;
1446;SDS011;717;51.522;7.266;2023-02-25T01:46:47;8.13;;;1.50;;
1446;SDS011;717;51.522;7.266;2023-02-25T01:49:17;6.50;;;1.53;;
1446;SDS011;717;51.522;7.266;2023-02-25T01:51:49;5.90;;;1.50;;
1446;SDS011;717;51.522;7.266;2023-02-25T01:54:20;8.67;;;1.77;;
1446;SDS011;717;51.522;7.266;2023-02-25T01:56:49;5.60;;;1.70;;
1446;SDS011;717;51.522;7.266;2023-02-25T01:59:21;9.37;;;1.40;;
1446;SDS011;717;51.522;7.266;2023-02-25T02:01:54;5.10;;;1.30;;
1446;SDS011;717;51.522;7.266;2023-02-25T02:04:23;8.90;;;1.30;;
1446;SDS011;717;51.522;7.266;2023-02-25T02:06:53;8.10;;;1.53;;
1446;SDS011;717;51.522;7.266;2023-02-25T02:09:24;6.10;;;1.20;;
1446;SDS011;717;51.522;7.266;2023-02-25T02:11:55;7.10;;;1.17;;
1446;SDS011;717;51.522;7.266;2023-02-25T02:14:25;7.87;;;1.43;;
1446;SDS011;717;51.522;7.266;2023-02-25T02:19:48;7.80;;;1.20;;
1446;SDS011;717;51.522;7.266;2023-02-25T02:22:33;5.80;;;1.07;;
1446;SDS011;717;51.522;7.266;2023-02-25T02:31:22;8.63;;;1.50;;
1446;SDS011;717;51.522;7.266;2023-02-25T02:33:58;5.53;;;1.37;;
1446;SDS011;717;51.522;7.266;2023-02-25T02:36:39;10.67;;;1.87;;
1446;SDS011;717;51.522;7.266;2023-02-25T02:39:17;6.53;;;1.60;;
1446;SDS011;717;51.522;7.266;2023-02-25T02:41:55;10.20;;;1.40;;
1446;SDS011;717;51.522;7.266;2023-02-25T02:44:30;5.87;;;1.30;;
1446;SDS011;717;51.522;7.266;2023-02-25T02:47:08;10.20;;;1.40;;
1446;SDS011;717;51.522;7.266;2023-02-25T02:49:42;5.23;;;1.43;;
1446;SDS011;717;51.522;7.266;2023-02-25T02:52:15;9.23;;;1.23;;
1446;SDS011;717;51.522;7.266;2023-02-25T02:54:48;5.50;;;1.33;;
1446;SDS011;717;51.522;7.266;2023-02-25T02:57:20;7.10;;;1.50;;
1446;SDS011;717;51.522;7.266;2023-02-25T02:59:52;10.73;;;1.30;;
1446;SDS011;717;51.522;7.266;2023-02-25T03:02:29;6.37;;;1.20;;
1446;SDS011;717;51.522;7.266;2023-02-25T03:05:02;4.97;;;1.50;;
1446;SDS011;717;51.522;7.266;2023-02-25T03:07:35;8.90;;;1.40;;
1446;SDS011;717;51.522;7.266;2023-02-25T03:10:10;8.77;;;1.50;;
1446;SDS011;717;51.522;7.266;2023-02-25T03:12:43;7.43;;;1.50;;
1446;SDS011;717;51.522;7.266;2023-02-25T03:15:11;9.90;;;1.60;;
1446;SDS011;717;51.522;7.266;2023-02-25T03:17:44;9.10;;;1.93;;
1446;SDS011;717;51.522;7.266;2023-02-25T03:20:18;8.10;;;1.67;;
1446;SDS011;717;51.522;7.266;2023-02-25T03:22:50;9.23;;;1.40;;
1446;SDS011;717;51.522;7.266;2023-02-25T03:25:22;6.37;;;1.33;;
1446;SDS011;717;51.522;7.266;2023-02-25T03:27:55;8.33;;;1.60;;
1446;SDS011;717;51.522;7.266;2023-02-25T03:30:27;6.13;;;1.80;;
1446;SDS011;717;51.522;7.266;2023-02-25T03:33:02;8.90;;;1.90;;
1446;SDS011;717;51.522;7.266;2023-02-25T03:35:36;12.87;;;2.17;;
1446;SDS011;717;51.522;7.266;2023-02-25T03:38:07;10.63;;;2.23;;
1446;SDS011;717;51.522;7.266;2023-02-25T03:40:38;5.40;;;1.50;;
1446;SDS011;717;51.522;7.266;2023-02-25T03:43:09;11.70;;;1.73;;
1446;SDS011;717;51.522;7.266;2023-02-25T03:45:41;10.03;;;1.80;;
1446;SDS011;717;51.522;7.266;2023-02-25T03:48:14;12.67;;;1.93;;
1446;SDS011;717;51.522;7.266;2023-02-25T03:50:45;9.07;;;1.70;;
1446;SDS011;717;51.522;7.266;2023-02-25T03:53:18;10.83;;;2.20;;
1446;SDS011;717;51.522;7.266;2023-02-25T03:55:47;9.67;;;2.40;;
1446;SDS011;717;51.522;7.266;2023-02-25T03:58:15;11.70;;;1.33;;
1446;SDS011;717;51.522;7.266;2023-02-25T04:00:45;9.50;;;1.70;;
1446;SDS011;717;51.522;7.266;2023-02-25T04:03:17;12.50;;;1.97;;
1446;SDS011;717;51.522;7.266;2023-02-25T04:05:46;9.27;;;2.00;;
1446;SDS011;717;51.522;7.266;2023-02-25T04:08:15;6.93;;;2.07;;
1446;SDS011;717;51.522;7.266;2023-02-25T04:10:43;10.60;;;1.87;;
1446;SDS011;717;51.522;7.266;2023-02-25T04:13:13;11.33;;;2.10;;
1446;SDS011;717;51.522;7.266;2023-02-25T04:15:44;11.17;;;1.70;;
1446;SDS011;717;51.522;7.266;2023-02-25T04:18:13;6.87;;;1.50;;
1446;SDS011;717;51.522;7.266;2023-02-25T04:20:45;12.10;;;1.50;;
1446;SDS011;717;51.522;7.266;2023-02-25T04:23:14;9.50;;;2.03;;
1446;SDS011;717;51.522;7.266;2023-02-25T04:25:42;5.00;;;1.30;;
1446;SDS011;717;51.522;7.266;2023-02-25T04:28:11;9.80;;;1.63;;
1446;SDS011;717;51.522;7.266;2023-02-25T04:30:40;8.27;;;1.13;;
1446;SDS011;717;51.522;7.266;2023-02-25T04:33:09;9.40;;;1.90;;
1446;SDS011;717;51.522;7.266;2023-02-25T04:35:38;11.17;;;2.00;;
1446;SDS011;717;51.522;7.266;2023-02-25T04:38:09;9.43;;;1.23;;
1446;SDS011;717;51.522;7.266;2023-02-25T04:40:37;8.57;;;1.23;;
1446;SDS011;717;51.522;7.266;2023-02-25T04:43:06;6.03;;;1.30;;
1446;SDS011;717;51.522;7.266;2023-02-25T04:45:35;7.80;;;1.33;;
1446;SDS011;717;51.522;7.266;2023-02-25T04:48:04;10.97;;;1.80;;
1446;SDS011;717;51.522;7.266;2023-02-25T04:50:33;8.53;;;1.90;;
1446;SDS011;717;51.522;7.266;2023-02-25T04:53:02;10.27;;;2.47;;
1446;SDS011;717;51.522;7.266;2023-02-25T04:55:34;8.97;;;1.50;;
1446;SDS011;717;51.522;7.266;2023-02-25T04:58:03;7.10;;;1.10;;
1446;SDS011;717;51.522;7.266;2023-02-25T05:00:31;9.73;;;1.43;;
1446;SDS011;717;51.522;7.266;2023-02-25T05:03:00;8.27;;;1.43;;
1446;SDS011;717;51.522;7.266;2023-02-25T05:05:28;9.37;;;1.50;;
1446;SDS011;717;51.522;7.266;2023-02-25T05:07:57;10.97;;;1.50;;
1446;SDS011;717;51.522;7.266;2023-02-25T05:10:26;5.83;;;1.33;;
1446;SDS011;717;51.522;7.266;2023-02-25T05:12:57;9.00;;;1.27;;
1446;SDS011;717;51.522;7.266;2023-02-25T05:15:26;5.47;;;1.33;;
1446;SDS011;717;51.522;7.266;2023-02-25T05:17:54;6.43;;;1.43;;
1446;SDS011;717;51.522;7.266;2023-02-25T05:20:23;9.43;;;1.43;;
1446;SDS011;717;51.522;7.266;2023-02-25T05:22:53;9.00;;;1.60;;
1446;SDS011;717;51.522;7.266;2023-02-25T05:25:22;6.87;;;1.83;;
1446;SDS011;717;51.522;7.266;2023-02-25T05:27:50;7.97;;;1.40;;
1446;SDS011;717;51.522;7.266;2023-02-25T05:30:22;7.97;;;1.53;;
1446;SDS011;717;51.522;7.266;2023-02-25T05:32:50;7.97;;;1.50;;
1446;SDS011;717;51.522;7.266;2023-02-25T05:35:19;11.63;;;1.90;;
1446;SDS011;717;51.522;7.266;2023-02-25T05:37:47;8.07;;;1.30;;
1446;SDS011;717;51.522;7.266;2023-02-25T05:40:16;4.77;;;1.50;;
1446;SDS011;717;51.522;7.266;2023-02-25T05:42:45;9.20;;;1.60;;
1446;SDS011;717;51.522;7.266;2023-02-25T05:45:14;11.30;;;1.63;;
1446;SDS011;717;51.522;7.266;2023-02-25T05:47:45;7.53;;;1.70;;
1446;SDS011;717;51.522;7.266;2023-02-25T05:50:14;8.60;;;2.23;;
1446;SDS011;717;51.522;7.266;2023-02-25T05:52:43;9.53;;;1.57;;
1446;SDS011;717;51.522;7.266;2023-02-25T05:55:11;8.13;;;1.67;;
1446;SDS011;717;51.522;7.266;2023-02-25T05:57:40;13.40;;;1.60;;
1446;SDS011;717;51.522;7.266;2023-02-25T06:00:09;10.13;;;1.13;;
1446;SDS011;717;51.522;7.266;2023-02-25T06:02:39;6.87;;;1.63;;
1446;SDS011;717;51.522;7.266;2023-02-25T06:05:11;8.07;;;1.37;;
1446;SDS011;717;51.522;7.266;2023-02-25T06:07:39;9.53;;;1.40;;
1446;SDS011;717;51.522;7.266;2023-02-25T06:10:09;7.67;;;1.30;;
1446;SDS011;717;51.522;7.266;2023-02-25T06:12:38;7.20;;;1.30;;
1446;SDS011;717;51.522;7.266;2023-02-25T06:15:07;6.80;;;1.47;;
1446;SDS011;717;51.522;7.266;2023-02-25T06:17:38;8.33;;;1.20;;
1446;SDS011;717;51.522;7.266;2023-02-25T06:20:07;9.50;;;1.63;;
1446;SDS011;717;51.522;7.266;2023-02-25T06:22:40;11.27;;;2.43;;
1446;SDS011;717;51.522;7.266;2023-02-25T06:25:09;9.77;;;1.60;;
1446;SDS011;717;51.522;7.266;2023-02-25T06:27:38;10.50;;;1.57;;
1446;SDS011;717;51.522;7.266;2023-02-25T06:30:07;11.43;;;1.60;;
1446;SDS011;717;51.522;7.266;2023-02-25T06:32:37;8.57;;;1.57;;
1446;SDS011;717;51.522;7.266;2023-02-25T06:35:06;9.33;;;1.57;;
1446;SDS011;717;51.522;7.266;2023-02-25T06:37:38;10.07;;;1.93;;
1446;SDS011;717;51.522;7.266;2023-02-25T06:40:07;10.13;;;1.70;;
1446;SDS011;717;51.522;7.266;2023-02-25T06:42:38;7.57;;;1.50;;
1446;SDS011;717;51.522;7.266;2023-02-25T06:45:07;8.33;;;1.87;;
1446;SDS011;717;51.522;7.266;2023-02-25T06:47:36;10.57;;;1.70;;
1446;SDS011;717;51.522;7.266;2023-02-25T06:50:05;12.20;;;2.00;;
1446;SDS011;717;51.522;7.266;2023-02-25T06:52:37;7.03;;;0.97;;
1446;SDS011;717;51.522;7.266;2023-02-25T06:55:07;11.60;;;1.70;;
1446;SDS011;717;51.522;7.266;2023-02-25T06:57:36;8.07;;;1.77;;
1446;SDS011;717;51.522;7.266;2023-02-25T07:00:05;11.30;;;1.63;;
1446;SDS011;717;51.522;7.266;2023-02-25T07:02:36;12.47;;;2.00;;
1446;SDS011;717;51.522;7.266;2023-02-25T07:05:04;9.87;;;1.50;;
1446;SDS011;717;51.522;7.266;2023-02-25T07:07:33;8.70;;;1.50;;
1446;SDS011;717;51.522;7.266;2023-02-25T07:10:06;7.70;;;1.40;;
1446;SDS011;717;51.522;7.266;2023-02-25T07:12:35;10.43;;;1.10;;
1446;SDS011;717;51.522;7.266;2023-02-25T07:15:04;10.30;;;1.57;;
1446;SDS011;717;51.522;7.266;2023-02-25T07:17:34;8.30;;;1.43;;
1446;SDS011;717;51.522;7.266;2023-02-25T07:20:03;8.40;;;1.97;;
1446;SDS011;717;51.522;7.266;2023-02-25T07:22:32;6.97;;;1.60;;
1446;SDS011;717;51.522;7.266;2023-02-25T07:25:01;9.37;;;1.57;;
1446;SDS011;717;51.522;7.266;2023-02-25T07:27:32;11.67;;;1.80;;
1446;SDS011;717;51.522;7.266;2023-02-25T07:30:01;7.90;;;1.50;;
1446;SDS011;717;51.522;7.266;2023-02-25T07:32:29;11.63;;;2.20;;
1446;SDS011;717;51.522;7.266;2023-02-25T07:34:58;8.20;;;1.53;;
1446;SDS011;717;51.522;7.266;2023-02-25T07:37:27;8.70;;;1.83;;
1446;SDS011;717;51.522;7.266;2023-02-25T07:39:55;7.70;;;1.40;;
1446;SDS011;717;51.522;7.266;2023-02-25T07:42:25;8.60;;;1.77;;
1446;SDS011;717;51.522;7.266;2023-02-25T07:44:56;7.87;;;1.60;;
1446;SDS011;717;51.522;7.266;2023-02-25T07:47:25;6.20;;;1.47;;
1446;SDS011;717;51.522;7.266;2023-02-25T07:49:53;10.90;;;1.57;;
1446;SDS011;717;51.522;7.266;2023-02-25T07:52:22;9.10;;;1.27;;
1446;SDS011;717;51.522;7.266;2023-02-25T07:54:50;7.10;;;1.20;;
1446;SDS011;717;51.522;7.266;2023-02-25T07:57:19;10.27;;;1.70;;
1446;SDS011;717;51.522;7.266;2023-02-25T07:59:47;7.80;;;1.60;;
1446;SDS011;717;51.522;7.266;2023-02-25T08:02:19;6.43;;;1.27;;
1446;SDS011;717;51.522;7.266;2023-02-25T08:04:48;9.33;;;2.00;;
1446;SDS011;717;51.522;7.266;2023-02-25T08:07:16;11.50;;;1.80;;
1446;SDS011;717;51.522;7.266;2023-02-25T08:09:45;10.40;;;2.00;;
1446;SDS011;717;51.522;7.266;2023-02-25T08:12:13;12.43;;;1.93;;
1446;SDS011;717;51.522;7.266;2023-02-25T08:14:42;12.47;;;1.73;;
1446;SDS011;717;51.522;7.266;2023-02-25T08:17:11;6.33;;;1.50;;
1446;SDS011;717;51.522;7.266;2023-02-25T08:19:42;5.90;;;1.50;;
1446;SDS011;717;51.522;7.266;2023-02-25T08:22:11;8.87;;;1.80;;
1446;SDS011;717;51.522;7.266;2023-02-25T08:24:40;9.63;;;1.93;;
1446;SDS011;717;51.522;7.266;2023-02-25T08:27:08;10.90;;;1.70;;
1446;SDS011;717;51.522;7.266;2023-02-25T08:29:37;7.63;;;1.50;;
1446;SDS011;717;51.522;7.266;2023-02-25T08:32:05;9.40;;;1.80;;
1446;SDS011;717;51.522;7.266;2023-02-25T08:34:34;9.93;;;1.80;;
1446;SDS011;717;51.522;7.266;2023-02-25T08:37:07;7.40;;;1.40;;
1446;SDS011;717;51.522;7.266;2023-02-25T08:39:35;9.70;;;1.83;;
1446;SDS011;717;51.522;7.266;2023-02-25T08:42:04;12.83;;;2.73;;
1446;SDS011;717;51.522;7.266;2023-02-25T08:44:33;7.17;;;1.77;;
1446;SDS011;717;51.522;7.266;2023-02-25T08:47:01;9.70;;;1.80;;
1446;SDS011;717;51.522;7.266;2023-02-25T08:49:30;7.53;;;1.90;;
1446;SDS011;717;51.522;7.266;2023-02-25T08:51:59;9.77;;;1.60;;
1446;SDS011;717;51.522;7.266;2023-02-25T08:54:30;8.37;;;1.60;;
1446;SDS011;717;51.522;7.266;2023-02-25T08:57:00;6.27;;;1.27;;
1446;SDS011;717;51.522;7.266;2023-02-25T08:59:28;7.23;;;1.30;;
1446;SDS011;717;51.522;7.266;2023-02-25T09:01:59;9.57;;;1.70;;
1446;SDS011;717;51.522;7.266;2023-02-25T09:04:31;6.87;;;1.50;;
1446;SDS011;717;51.522;7.266;2023-02-25T09:07:00;7.70;;;1.33;;
1446;SDS011;717;51.522;7.266;2023-02-25T09:09:32;4.60;;;1.10;;
1446;SDS011;717;51.522;7.266;2023-02-25T09:12:00;6.53;;;1.20;;
1446;SDS011;717;51.522;7.266;2023-02-25T09:14:30;6.60;;;1.30;;
1446;SDS011;717;51.522;7.266;2023-02-25T09:17:00;4.40;;;1.10;;
1446;SDS011;717;51.522;7.266;2023-02-25T09:19:30;4.00;;;0.70;;
1446;SDS011;717;51.522;7.266;2023-02-25T09:22:00;6.80;;;0.73;;
1446;SDS011;717;51.522;7.266;2023-02-25T09:24:29;4.10;;;1.07;;
1446;SDS011;717;51.522;7.266;2023-02-25T09:27:00;4.77;;;0.90;;
1446;SDS011;717;51.522;7.266;2023-02-25T09:29:32;5.17;;;0.97;;
1446;SDS011;717;51.522;7.266;2023-02-25T09:32:00;3.70;;;0.77;;
1446;SDS011;717;51.522;7.266;2023-02-25T09:34:29;4.88;;;1.05;;
1446;SDS011;717;51.522;7.266;2023-02-25T09:36:58;3.53;;;0.87;;
1446;SDS011;717;51.522;7.266;2023-02-25T09:39:27;4.00;;;0.63;;
1446;SDS011;717;51.522;7.266;2023-02-25T09:41:59;4.93;;;0.90;;
1446;SDS011;717;51.522;7.266;2023-02-25T09:44:35;4.53;;;0.90;;
1446;SDS011;717;51.522;7.266;2023-02-25T09:47:09;5.38;;;1.08;;
1446;SDS011;717;51.522;7.266;2023-02-25T09:49:44;3.07;;;0.83;;
1446;SDS011;717;51.522;7.266;2023-02-25T09:52:20;4.03;;;0.80;;
1446;SDS011;717;51.522;7.266;2023-02-25T09:54:54;4.67;;;0.63;;
1446;SDS011;717;51.522;7.266;2023-02-25T09:57:30;4.13;;;1.00;;
1446;SDS011;717;51.522;7.266;2023-02-25T10:00:06;4.50;;;1.17;;
1446;SDS011;717;51.522;7.266;2023-02-25T10:02:46;3.97;;;0.70;;
1446;SDS011;717;51.522;7.266;2023-02-25T10:05:20;3.60;;;1.13;;
1446;SDS011;717;51.522;7.266;2023-02-25T10:07:57;3.00;;;0.83;;
1446;SDS011;717;51.522;7.266;2023-02-25T10:10:36;3.40;;;1.17;;
1446;SDS011;717;51.522;7.266;2023-02-25T10:13:18;4.63;;;0.87;;
1446;SDS011;717;51.522;7.266;2023-02-25T10:15:55;2.27;;;0.60;;
1446;SDS011;717;51.522;7.266;2023-02-25T10:18:36;2.73;;;0.70;;
1446;SDS011;717;51.522;7.266;2023-02-25T10:21:19;2.17;;;0.33;;
1446;SDS011;717;51.522;7.266;2023-02-25T10:23:58;2.13;;;0.47;;
1446;SDS011;717;51.522;7.266;2023-02-25T10:26:41;1.50;;;0.43;;
1446;SDS011;717;51.522;7.266;2023-02-25T10:29:19;2.10;;;0.37;;
1446;SDS011;717;51.522;7.266;2023-02-25T10:31:52;1.17;;;0.47;;
1446;SDS011;717;51.522;7.266;2023-02-25T10:34:25;3.42;;;0.60;;
1446;SDS011;717;51.522;7.266;2023-02-25T10:36:57;2.33;;;0.57;;
1446;SDS011;717;51.522;7.266;2023-02-25T10:39:27;4.57;;;0.50;;
1446;SDS011;717;51.522;7.266;2023-02-25T10:41:56;3.10;;;0.60;;
1446;SDS011;717;51.522;7.266;2023-02-25T10:44:28;1.27;;;0.40;;
1446;SDS011;717;51.522;7.266;2023-02-25T10:46:57;2.00;;;0.50;;
1446;SDS011;717;51.522;7.266;2023-02-25T10:49:30;1.67;;;0.40;;
1446;SDS011;717;51.522;7.266;2023-02-25T10:52:03;1.13;;;0.50;;
1446;SDS011;717;51.522;7.266;2023-02-25T10:54:35;1.17;;;0.65;;
1446;SDS011;717;51.522;7.266;2023-02-25T10:57:13;2.80;;;0.80;;
1446;SDS011;717;51.522;7.266;2023-02-25T10:59:46;3.73;;;0.80;;
1446;SDS011;717;51.522;7.266;2023-02-25T11:02:26;4.55;;;0.80;;
1446;SDS011;717;51.522;7.266;2023-02-25T11:04:57;3.38;;;0.93;;
1446;SDS011;717;51.522;7.266;2023-02-25T11:07:30;3.25;;;0.88;;
1446;SDS011;717;51.522;7.266;2023-02-25T11:10:04;2.60;;;0.57;;
1446;SDS011;717;51.522;7.266;2023-02-25T11:12:40;2.90;;;0.80;;
1446;SDS011;717;51.522;7.266;2023-02-25T11:15:25;4.20;;;0.73;;
1446;SDS011;717;51.522;7.266;2023-02-25T11:18:00;5.95;;;0.95;;
1446;SDS011;717;51.522;7.266;2023-02-25T11:20:33;4.85;;;0.82;;
1446;SDS011;717;51.522;7.266;2023-02-25T11:23:02;6.03;;;1.17;;
1446;SDS011;717;51.522;7.266;2023-02-25T11:25:35;6.75;;;1.20;;
1446;SDS011;717;51.522;7.266;2023-02-25T11:28:24;3.05;;;0.70;;
1446;SDS011;717;51.522;7.266;2023-02-25T11:31:06;4.80;;;1.17;;
1446;SDS011;717;51.522;7.266;2023-02-25T11:33:37;2.77;;;0.97;;
1446;SDS011;717;51.522;7.266;2023-02-25T11:36:10;3.72;;;0.80;;
1446;SDS011;717;51.522;7.266;2023-02-25T11:38:39;3.50;;;0.93;;
1446;SDS011;717;51.522;7.266;2023-02-25T11:41:15;3.63;;;0.90;;
1446;SDS011;717;51.522;7.266;2023-02-25T11:43:47;3.35;;;0.73;;
1446;SDS011;717;51.522;7.266;2023-02-25T11:46:21;5.82;;;0.95;;
1446;SDS011;717;51.522;7.266;2023-02-25T11:48:52;3.30;;;0.60;;
1446;SDS011;717;51.522;7.266;2023-02-25T11:51:27;2.80;;;0.85;;
1446;SDS011;717;51.522;7.266;2023-02-25T11:54:12;2.22;;;0.60;;
1446;SDS011;717;51.522;7.266;2023-02-25T11:56:50;2.35;;;0.75;;
1446;SDS011;717;51.522;7.266;2023-02-25T11:59:30;3.75;;;0.85;;
1446;SDS011;717;51.522;7.266;2023-02-25T12:05:01;3.40;;;1.40;;
1446;SDS011;717;51.522;7.266;2023-02-25T12:07:55;4.20;;;0.90;;
1446;SDS011;717;51.522;7.266;2023-02-25T12:10:45;4.03;;;0.70;;
1446;SDS011;717;51.522;7.266;2023-02-25T12:13:50;5.07;;;0.95;;
1446;SDS011;717;51.522;7.266;2023-02-25T12:16:50;3.78;;;0.70;;
1446;SDS011;717;51.522;7.266;2023-02-25T12:19:40;1.40;;;0.75;;
1446;SDS011;717;51.522;7.266;2023-02-25T12:22:28;4.00;;;0.90;;
1446;SDS011;717;51.522;7.266;2023-02-25T12:25:19;5.82;;;1.02;;
1446;SDS011;717;51.522;7.266;2023-02-25T12:28:03;1.85;;;0.80;;
1446;SDS011;717;51.522;7.266;2023-02-25T12:34:01;3.90;;;0.93;;
1446;SDS011;717;51.522;7.266;2023-02-25T12:36:59;2.85;;;0.77;;
1446;SDS011;717;51.522;7.266;2023-02-25T12:39:48;4.70;;;1.15;;
1446;SDS011;717;51.522;7.266;2023-02-25T12:42:36;4.10;;;1.20;;
1446;SDS011;717;51.522;7.266;2023-02-25T12:45:17;4.20;;;0.93;;
1446;SDS011;717;51.522;7.266;2023-02-25T12:47:58;2.22;;;0.70;;
1446;SDS011;717;51.522;7.266;2023-02-25T12:50:42;2.67;;;0.68;;
1446;SDS011;717;51.522;7.266;2023-02-25T12:53:36;4.60;;;1.20;;
1446;SDS011;717;51.522;7.266;2023-02-25T12:56:24;4.72;;;0.90;;
1446;SDS011;717;51.522;7.266;2023-02-25T12:59:10;3.33;;;0.90;;
1446;SDS011;717;51.522;7.266;2023-02-25T13:04:59;4.25;;;1.00;;
1446;SDS011;717;51.522;7.266;2023-02-25T13:07:51;4.28;;;0.80;;
1446;SDS011;717;51.522;7.266;2023-02-25T13:10:45;2.78;;;0.80;;
1446;SDS011;717;51.522;7.266;2023-02-25T13:16:41;2.25;;;0.80;;
1446;SDS011;717;51.522;7.266;2023-02-25T13:19:35;5.88;;;1.10;;
1446;SDS011;717;51.522;7.266;2023-02-25T13:22:32;5.50;;;1.00;;
1446;SDS011;717;51.522;7.266;2023-02-25T13:25:12;1.95;;;0.80;;
1446;SDS011;717;51.522;7.266;2023-02-25T13:28:02;2.78;;;0.75;;
1446;SDS011;717;51.522;7.266;2023-02-25T13:30:39;3.30;;;0.70;;
1446;SDS011;717;51.522;7.266;2023-02-25T13:36:15;2.33;;;0.68;;
1446;SDS011;717;51.522;7.266;2023-02-25T13:39:13;1.73;;;0.50;;
1446;SDS011;717;51.522;7.266;2023-02-25T13:41:58;2.05;;;0.55;;
1446;SDS011;717;51.522;7.266;2023-02-25T13:44:53;2.53;;;0.47;;
1446;SDS011;717;51.522;7.266;2023-02-25T13:47:51;2.50;;;0.50;;
1446;SDS011;717;51.522;7.266;2023-02-25T13:50:36;1.85;;;0.43;;
1446;SDS011;717;51.522;7.266;2023-02-25T13:53:17;2.42;;;0.52;;
1446;SDS011;717;51.522;7.266;2023-02-25T13:56:04;1.13;;;0.40;;
1446;SDS011;717;51.522;7.266;2023-02-25T13:59:01;1.42;;;0.50;;
1446;SDS011;717;51.522;7.266;2023-02-25T14:01:43;3.65;;;0.38;;
1446;SDS011;717;51.522;7.266;2023-02-25T14:10:30;4.00;;;0.30;;
1446;SDS011;717;51.522;7.266;2023-02-25T14:13:12;0.95;;;0.40;;
1446;SDS011;717;51.522;7.266;2023-02-25T14:16:04;2.08;;;0.30;;
1446;SDS011;717;51.522;7.266;2023-02-25T14:18:58;4.90;;;0.50;;
1446;SDS011;717;51.522;7.266;2023-02-25T14:21:44;1.15;;;0.43;;
1446;SDS011;717;51.522;7.266;2023-02-25T14:24:36;1.23;;;0.55;;
1446;SDS011;717;51.522;7.266;2023-02-25T14:27:14;0.70;;;0.32;;
1446;SDS011;717;51.522;7.266;2023-02-25T14:29:59;1.58;;;0.40;;
1446;SDS011;717;51.522;7.266;2023-02-25T14:32:42;1.63;;;0.32;;
1446;SDS011;717;51.522;7.266;2023-02-25T14:38:39;1.55;;;0.50;;
1446;SDS011;717;51.522;7.266;2023-02-25T14:41:26;1.55;;;0.60;;
1446;SDS011;717;51.522;7.266;2023-02-25T14:44:02;2.55;;;0.38;;
1446;SDS011;717;51.522;7.266;2023-02-25T14:46:38;1.55;;;0.32;;
1446;SDS011;717;51.522;7.266;2023-02-25T14:49:11;1.45;;;0.70;;
1446;SDS011;717;51.522;7.266;2023-02-25T14:51:58;1.92;;;0.40;;
1446;SDS011;717;51.522;7.266;2023-02-25T14:54:45;1.13;;;0.50;;
1446;SDS011;717;51.522;7.266;2023-02-25T14:57:42;2.67;;;0.50;;
1446;SDS011;717;51.522;7.266;2023-02-25T15:03:42;3.17;;;0.60;;
1446;SDS011;717;51.522;7.266;2023-02-25T15:06:39;2.83;;;0.70;;
1446;SDS011;717;51.522;7.266;2023-02-25T15:12:31;2.63;;;0.60;;
1446;SDS011;717;51.522;7.266;2023-02-25T15:15:23;2.33;;;0.60;;
1446;SDS011;717;51.522;7.266;2023-02-25T15:20:54;2.80;;;0.43;;
1446;SDS011;717;51.522;7.266;2023-02-25T15:23:39;1.33;;;0.30;;
1446;SDS011;717;51.522;7.266;2023-02-25T15:26:22;1.90;;;0.50;;
1446;SDS011;717;51.522;7.266;2023-02-25T15:28:54;1.27;;;0.70;;
1446;SDS011;717;51.522;7.266;2023-02-25T15:31:24;2.72;;;0.68;;
1446;SDS011;717;51.522;7.266;2023-02-25T15:37:09;1.88;;;0.60;;
1446;SDS011;717;51.522;7.266;2023-02-25T15:49:26;2.58;;;0.52;;
1446;SDS011;717;51.522;7.266;2023-02-25T15:51:59;1.45;;;0.43;;
1446;SDS011;717;51.522;7.266;2023-02-25T15:57:35;0.98;;;0.40;;
1446;SDS011;717;51.522;7.266;2023-02-25T16:06:07;2.08;;;0.60;;
1446;SDS011;717;51.522;7.266;2023-02-25T16:08:41;1.42;;;0.65;;
1446;SDS011;717;51.522;7.266;2023-02-25T16:11:27;1.20;;;0.43;;
1446;SDS011;717;51.522;7.266;2023-02-25T16:14:02;1.45;;;0.40;;
1446;SDS011;717;51.522;7.266;2023-02-25T16:16:33;2.08;;;0.52;;
1446;SDS011;717;51.522;7.266;2023-02-25T16:19:08;3.42;;;0.98;;
1446;SDS011;717;51.522;7.266;2023-02-25T16:21:43;1.30;;;0.57;;
1446;SDS011;717;51.522;7.266;2023-02-25T16:24:13;3.25;;;0.73;;
1446;SDS011;717;51.522;7.266;2023-02-25T16:26:45;2.60;;;0.88;;
1446;SDS011;717;51.522;7.266;2023-02-25T16:29:23;2.45;;;0.82;;
1446;SDS011;717;51.522;7.266;2023-02-25T16:32:06;3.22;;;0.60;;
1446;SDS011;717;51.522;7.266;2023-02-25T16:34:48;1.67;;;0.70;;
1446;SDS011;717;51.522;7.266;2023-02-25T16:37:23;1.88;;;0.77;;
1446;SDS011;717;51.522;7.266;2023-02-25T16:39:58;2.45;;;0.47;;
1446;SDS011;717;51.522;7.266;2023-02-25T16:42:29;1.45;;;0.57;;
1446;SDS011;717;51.522;7.266;2023-02-25T16:45:01;2.70;;;0.80;;
1446;SDS011;717;51.522;7.266;2023-02-25T16:47:32;3.35;;;0.90;;
1446;SDS011;717;51.522;7.266;2023-02-25T16:50:10;4.20;;;1.20;;
1446;SDS011;717;51.522;7.266;2023-02-25T16:52:44;3.17;;;1.13;;
1446;SDS011;717;51.522;7.266;2023-02-25T16:55:15;2.10;;;0.80;;
1446;SDS011;717;51.522;7.266;2023-02-25T16:57:59;2.13;;;0.85;;
1446;SDS011;717;51.522;7.266;2023-02-25T17:00:28;2.25;;;0.73;;
1446;SDS011;717;51.522;7.266;2023-02-25T17:02:58;1.63;;;0.75;;
1446;SDS011;717;51.522;7.266;2023-02-25T17:05:32;2.03;;;1.20;;
1446;SDS011;717;51.522;7.266;2023-02-25T17:08:03;3.55;;;1.40;;
1446;SDS011;717;51.522;7.266;2023-02-25T17:10:34;2.88;;;1.10;;
1446;SDS011;717;51.522;7.266;2023-02-25T17:13:12;3.00;;;1.00;;
1446;SDS011;717;51.522;7.266;2023-02-25T17:15:43;2.70;;;1.00;;